createdAt,value
2018-07-02T00:01:01.569Z,0.90
2018-07-02T00:03:30.116Z,1.00
2018-07-02T00:06:09.969Z,1.00
2018-07-02T00:08:38.532Z,1.10
2018-07-02T00:11:07.226Z,0.90
2018-07-02T00:13:35.768Z,1.20
2018-07-02T00:16:04.331Z,1.30
2018-07-02T00:18:32.845Z,1.40
2018-07-02T00:21:01.763Z,1.20
2018-07-02T00:23:31.013Z,1.20
2018-07-02T00:25:59.508Z,1.20
2018-07-02T00:28:27.990Z,1.43
2018-07-02T00:30:56.498Z,1.70
2018-07-02T00:33:25.019Z,1.30
2018-07-02T00:35:53.525Z,2.20
2018-07-02T00:38:22.021Z,2.07
2018-07-02T00:40:50.497Z,2.00
2018-07-02T00:43:19.025Z,1.60
2018-07-02T00:45:47.492Z,2.47
2018-07-02T00:48:16.504Z,2.03
2018-07-02T00:50:45.026Z,2.50
2018-07-02T00:53:13.499Z,1.43
2018-07-02T00:55:42.061Z,2.20
2018-07-02T00:58:10.598Z,2.03
2018-07-02T01:00:39.092Z,2.20
2018-07-02T01:03:08.193Z,2.80
2018-07-02T01:05:36.693Z,2.00
2018-07-02T01:08:05.180Z,3.37
2018-07-02T01:10:34.217Z,2.17
2018-07-02T01:13:02.718Z,2.60
2018-07-02T01:15:31.221Z,2.73
2018-07-02T01:17:59.821Z,2.47
2018-07-02T01:20:28.297Z,2.43
2018-07-02T01:22:56.784Z,2.97
2018-07-02T01:25:25.288Z,2.07
2018-07-02T01:27:53.795Z,2.70
2018-07-02T01:30:22.324Z,2.50
2018-07-02T01:32:50.854Z,2.53
2018-07-02T01:35:19.344Z,2.40
2018-07-02T01:37:47.873Z,2.70
2018-07-02T01:40:16.521Z,2.43
2018-07-02T01:44:14.188Z,1.90
2018-07-02T01:46:42.677Z,2.10
2018-07-02T01:49:11.324Z,2.80
2018-07-02T01:51:39.841Z,2.27
2018-07-02T01:54:08.325Z,2.00
2018-07-02T01:56:36.841Z,2.30
2018-07-02T01:59:05.524Z,2.10
2018-07-02T02:01:34.029Z,2.40
2018-07-02T02:04:02.500Z,2.20
2018-07-02T02:06:31.208Z,2.17
2018-07-02T02:08:59.689Z,2.00
2018-07-02T02:11:28.217Z,2.10
2018-07-02T02:13:56.759Z,1.63
2018-07-02T02:16:25.325Z,2.40
2018-07-02T02:18:53.863Z,2.13
2018-07-02T02:21:22.404Z,1.80
2018-07-02T02:23:51.082Z,2.00
2018-07-02T02:26:19.586Z,2.07
2018-07-02T02:28:48.090Z,2.60
2018-07-02T02:31:16.651Z,1.93
2018-07-02T02:33:45.234Z,2.10
2018-07-02T02:36:13.753Z,2.13
2018-07-02T02:38:42.247Z,2.10
2018-07-02T02:41:10.845Z,1.80
2018-07-02T02:43:39.435Z,1.70
2018-07-02T02:46:08.222Z,2.10
2018-07-02T02:48:36.975Z,3.40
2018-07-02T02:51:05.864Z,2.07
2018-07-02T02:53:34.365Z,2.10
2018-07-02T02:56:02.914Z,1.90
2018-07-02T02:58:31.529Z,1.67
2018-07-02T03:01:00.082Z,1.67
2018-07-02T03:03:28.759Z,1.67
2018-07-02T03:05:57.306Z,1.73
2018-07-02T03:08:25.814Z,1.87
2018-07-02T03:10:54.343Z,1.83
2018-07-02T03:13:22.887Z,2.00
2018-07-02T03:15:51.399Z,2.17
2018-07-02T03:18:19.889Z,2.27
2018-07-02T03:20:48.535Z,1.97
2018-07-02T03:23:17.034Z,2.03
2018-07-02T03:25:45.521Z,2.00
2018-07-02T03:28:14.061Z,1.90
2018-07-02T03:30:42.597Z,2.93
2018-07-02T03:33:11.301Z,2.00
2018-07-02T03:35:39.809Z,1.83
2018-07-02T03:38:08.327Z,1.80
2018-07-02T03:40:37.310Z,2.03
2018-07-02T03:43:05.858Z,1.73
2018-07-02T03:45:34.622Z,2.10
2018-07-02T03:48:03.211Z,1.90
2018-07-02T03:50:32.003Z,1.93
2018-07-02T03:53:00.546Z,1.53
2018-07-02T03:55:29.136Z,1.60
2018-07-02T03:57:58.625Z,2.10
2018-07-02T04:00:27.127Z,1.43
2018-07-02T04:02:55.675Z,1.90
2018-07-02T04:05:24.194Z,1.80
2018-07-02T04:07:52.886Z,1.80
2018-07-02T04:10:21.399Z,2.20
2018-07-02T04:12:50.054Z,1.83
2018-07-02T04:15:18.610Z,1.70
2018-07-02T04:17:47.113Z,1.73
2018-07-02T04:20:16.095Z,1.60
2018-07-02T04:22:44.610Z,1.67
2018-07-02T04:25:13.184Z,1.60
2018-07-02T04:27:41.686Z,1.80
2018-07-02T04:30:10.210Z,1.87
2018-07-02T04:32:38.775Z,1.67
2018-07-02T04:35:07.302Z,1.57
2018-07-02T04:37:36.456Z,1.70
2018-07-02T04:40:05.075Z,2.27
2018-07-02T04:42:33.596Z,1.73
2018-07-02T04:45:02.187Z,1.50
2018-07-02T04:47:30.741Z,1.90
2018-07-02T04:49:59.217Z,1.47
2018-07-02T04:52:27.746Z,1.90
2018-07-02T04:54:56.284Z,1.70
2018-07-02T04:57:24.953Z,1.90
2018-07-02T04:59:53.441Z,1.60
2018-07-02T05:02:21.933Z,1.50
2018-07-02T05:04:50.490Z,1.70
2018-07-02T05:07:18.981Z,1.57
2018-07-02T05:09:47.498Z,1.60
2018-07-02T05:12:16.117Z,1.87
2018-07-02T05:14:44.702Z,1.57
2018-07-02T05:17:13.273Z,1.53
2018-07-02T05:19:42.337Z,1.37
2018-07-02T05:22:10.860Z,1.70
2018-07-02T05:24:40.499Z,1.67
2018-07-02T05:27:09.237Z,1.90
2018-07-02T05:29:38.186Z,1.80
2018-07-02T05:32:06.665Z,2.10
2018-07-02T05:34:35.650Z,1.63
2018-07-02T05:37:04.154Z,1.80
2018-07-02T05:39:32.627Z,2.00
2018-07-02T05:42:01.102Z,1.57
2018-07-02T05:44:29.993Z,1.90
2018-07-02T05:46:58.452Z,1.80
2018-07-02T05:49:26.974Z,2.00
2018-07-02T05:51:55.674Z,2.10
2018-07-02T05:54:24.149Z,1.90
2018-07-02T05:56:53.147Z,1.80
2018-07-02T05:59:21.673Z,1.63
2018-07-02T06:01:50.149Z,1.67
2018-07-02T06:04:19.017Z,1.97
2018-07-02T06:06:47.543Z,3.50
2018-07-02T06:09:16.049Z,2.40
2018-07-02T06:11:44.561Z,1.60
2018-07-02T06:14:13.072Z,1.50
2018-07-02T06:16:41.580Z,1.30
2018-07-02T06:19:10.081Z,1.60
2018-07-02T06:21:38.586Z,1.10
2018-07-02T06:24:07.122Z,1.40
2018-07-02T06:26:35.623Z,1.47
2018-07-02T06:29:04.119Z,1.77
2018-07-02T06:31:32.688Z,2.00
2018-07-02T06:34:01.157Z,1.60
2018-07-02T06:36:29.665Z,1.10
2018-07-02T06:38:58.197Z,1.23
2018-07-02T06:41:26.694Z,1.33
2018-07-02T06:43:55.354Z,1.40
2018-07-02T06:46:23.865Z,1.20
2018-07-02T06:48:52.340Z,1.60
2018-07-02T06:51:20.814Z,1.20
2018-07-02T06:53:49.312Z,1.10
2018-07-02T06:56:17.823Z,1.40
2018-07-02T06:58:46.444Z,1.60
2018-07-02T07:01:14.945Z,1.67
2018-07-02T07:03:43.433Z,1.27
2018-07-02T07:06:12.037Z,1.10
2018-07-02T07:08:40.597Z,1.03
2018-07-02T07:11:09.130Z,1.17
2018-07-02T07:13:37.749Z,1.17
2018-07-02T07:16:07.091Z,1.10
2018-07-02T07:18:35.620Z,0.97
2018-07-02T07:21:04.087Z,1.60
2018-07-02T07:23:32.653Z,1.40
2018-07-02T07:26:01.478Z,1.47
2018-07-02T07:28:29.947Z,1.00
2018-07-02T07:30:58.443Z,1.57
2018-07-02T07:33:27.393Z,1.10
2018-07-02T07:35:55.909Z,1.27
2018-07-02T07:38:24.383Z,1.33
2018-07-02T07:40:53.479Z,1.00
2018-07-02T07:43:21.982Z,1.73
2018-07-02T07:45:50.551Z,1.43
2018-07-02T07:48:19.022Z,1.80
2018-07-02T07:50:47.515Z,1.20
2018-07-02T07:53:16.030Z,1.07
2018-07-02T07:55:44.510Z,1.17
2018-07-02T07:58:13.031Z,1.40
2018-07-02T08:00:41.526Z,1.20
2018-07-02T08:03:10.479Z,1.00
2018-07-02T08:05:38.942Z,1.07
2018-07-02T08:08:07.427Z,1.13
2018-07-02T08:10:35.943Z,1.30
2018-07-02T08:13:04.425Z,1.30
2018-07-02T08:15:32.985Z,1.20
2018-07-02T08:18:01.570Z,2.33
2018-07-02T08:20:30.081Z,1.47
2018-07-02T08:22:58.674Z,1.00
2018-07-02T08:25:27.165Z,1.23
2018-07-02T08:27:55.648Z,1.60
2018-07-02T08:30:24.150Z,1.10
2018-07-02T08:32:52.667Z,1.00
2018-07-02T08:35:21.162Z,1.30
2018-07-02T08:37:49.639Z,0.90
2018-07-02T08:40:18.252Z,0.97
2018-07-02T08:42:46.711Z,1.13
2018-07-02T08:45:15.211Z,1.10
2018-07-02T08:47:43.710Z,1.33
2018-07-02T08:50:12.224Z,1.00
2018-07-02T08:52:41.185Z,0.80
2018-07-02T08:55:09.716Z,1.30
2018-07-02T08:57:38.170Z,1.27
2018-07-02T09:00:06.730Z,1.10
2018-07-02T09:02:35.265Z,0.87
2018-07-02T09:05:03.841Z,0.70
2018-07-02T09:07:32.393Z,1.00
2018-07-02T09:10:00.917Z,1.10
2018-07-02T09:12:29.417Z,1.00
2018-07-02T09:14:57.920Z,0.90
2018-07-02T09:17:26.545Z,0.80
2018-07-02T09:19:55.103Z,0.90
2018-07-02T09:22:23.670Z,1.10
2018-07-02T09:24:52.205Z,0.80
2018-07-02T09:27:20.701Z,0.70
2018-07-02T09:29:49.166Z,0.80
2018-07-02T09:32:17.636Z,0.80
2018-07-02T09:34:46.332Z,0.80
2018-07-02T09:37:14.805Z,0.90
2018-07-02T09:39:43.269Z,0.70
2018-07-02T09:42:11.781Z,0.70
2018-07-02T09:44:40.492Z,0.87
2018-07-02T09:47:08.973Z,0.53
2018-07-02T09:49:37.469Z,0.70
2018-07-02T09:52:06.000Z,0.90
2018-07-02T09:54:34.506Z,0.90
2018-07-02T09:57:03.025Z,0.60
2018-07-02T09:59:31.647Z,1.00
2018-07-02T10:02:00.145Z,0.70
2018-07-02T10:04:28.726Z,1.00
2018-07-02T10:06:57.203Z,0.97
2018-07-02T10:09:25.812Z,0.80
2018-07-02T10:11:54.294Z,0.90
2018-07-02T10:14:22.847Z,0.80
2018-07-02T10:16:51.548Z,0.60
2018-07-02T10:19:20.084Z,0.83
2018-07-02T10:21:48.554Z,0.80
2018-07-02T10:24:17.249Z,0.93
2018-07-02T10:26:45.768Z,0.80
2018-07-02T10:29:14.303Z,0.73
2018-07-02T10:31:42.897Z,0.70
2018-07-02T10:34:11.385Z,0.70
2018-07-02T10:36:39.969Z,0.80
2018-07-02T10:39:09.421Z,0.80
2018-07-02T10:41:38.593Z,0.80
2018-07-02T10:44:07.408Z,0.80
2018-07-02T10:46:36.113Z,0.90
2018-07-02T10:49:04.603Z,1.00
2018-07-02T10:51:33.385Z,1.00
2018-07-02T10:54:01.863Z,0.67
2018-07-02T10:56:30.324Z,0.60
2018-07-02T10:58:58.857Z,0.70
2018-07-02T11:01:27.398Z,0.80
2018-07-02T11:03:55.883Z,0.73
2018-07-02T11:06:24.486Z,0.70
2018-07-02T11:08:52.956Z,0.70
2018-07-02T11:11:21.557Z,0.80
2018-07-02T11:13:49.978Z,0.93
2018-07-02T11:16:18.513Z,0.60
2018-07-02T11:18:47.038Z,0.80
2018-07-02T11:21:16.053Z,0.60
2018-07-02T11:23:44.754Z,0.70
2018-07-02T11:26:13.238Z,0.80
2018-07-02T11:28:41.720Z,0.60
2018-07-02T11:31:10.215Z,1.07
2018-07-02T11:33:38.705Z,0.70
2018-07-02T11:36:07.193Z,0.50
2018-07-02T11:38:35.662Z,0.80
2018-07-02T11:41:04.225Z,0.93
2018-07-02T11:43:32.806Z,0.70
2018-07-02T11:46:01.357Z,0.80
2018-07-02T11:48:29.892Z,0.70
2018-07-02T11:50:58.394Z,0.80
2018-07-02T11:53:26.931Z,0.70
2018-07-02T11:55:55.397Z,0.70
2018-07-02T11:58:23.889Z,0.83
2018-07-02T12:00:52.418Z,0.93
2018-07-02T12:03:21.325Z,0.60
2018-07-02T12:05:49.817Z,0.70
2018-07-02T12:08:18.685Z,0.60
2018-07-02T12:10:47.173Z,0.70
2018-07-02T12:13:15.832Z,0.60
2018-07-02T12:15:44.501Z,0.80
2018-07-02T12:18:13.045Z,0.60
2018-07-02T12:20:41.529Z,0.50
2018-07-02T12:23:10.062Z,0.87
2018-07-02T12:25:38.558Z,0.60
2018-07-02T12:28:07.193Z,0.60
2018-07-02T12:30:35.751Z,0.50
2018-07-02T12:33:04.384Z,0.60
2018-07-02T12:35:33.127Z,0.50
2018-07-02T12:38:01.633Z,0.60
2018-07-02T12:40:30.127Z,0.50
2018-07-02T12:42:58.625Z,0.60
2018-07-02T12:45:27.181Z,0.60
2018-07-02T12:47:56.137Z,0.70
2018-07-02T12:50:25.468Z,0.50
2018-07-02T12:52:54.325Z,0.60
2018-07-02T12:55:23.202Z,0.60
2018-07-02T12:57:51.673Z,0.60
2018-07-02T13:00:20.161Z,0.57
2018-07-02T13:02:48.673Z,0.60
2018-07-02T13:05:17.209Z,0.57
2018-07-02T13:07:45.813Z,0.70
2018-07-02T13:10:14.328Z,0.67
2018-07-02T13:12:42.849Z,0.63
2018-07-02T13:15:11.426Z,0.60
2018-07-02T13:17:39.914Z,0.60
2018-07-02T13:20:08.405Z,0.53
2018-07-02T13:22:37.385Z,0.50
2018-07-02T13:25:05.943Z,0.50
2018-07-02T13:27:34.473Z,0.60
2018-07-02T13:30:03.184Z,0.60
2018-07-02T13:32:31.621Z,0.50
2018-07-02T13:35:00.102Z,0.57
2018-07-02T13:37:28.621Z,0.93
2018-07-02T13:39:57.097Z,0.80
2018-07-02T13:42:25.701Z,0.60
2018-07-02T13:44:54.180Z,0.50
2018-07-02T13:47:22.658Z,0.53
2018-07-02T13:49:51.190Z,0.80
2018-07-02T13:52:19.673Z,0.63
2018-07-02T13:54:48.191Z,0.60
2018-07-02T13:57:16.822Z,0.50
2018-07-02T13:59:45.405Z,0.50
2018-07-02T14:02:13.922Z,0.67
2018-07-02T14:04:43.022Z,0.60
2018-07-02T14:07:11.495Z,0.70
2018-07-02T14:09:39.981Z,0.70
2018-07-02T14:12:08.932Z,0.60
2018-07-02T14:14:37.454Z,0.80
2018-07-02T14:17:05.950Z,0.70
2018-07-02T14:19:34.501Z,0.50
2018-07-02T14:22:03.041Z,0.60
2018-07-02T14:24:31.590Z,0.57
2018-07-02T14:27:00.060Z,0.50
2018-07-02T14:29:28.521Z,0.63
2018-07-02T14:31:57.031Z,0.60
2018-07-02T14:34:25.536Z,0.70
2018-07-02T14:36:54.069Z,0.50
2018-07-02T14:39:22.595Z,0.60
2018-07-02T14:41:51.092Z,0.70
2018-07-02T14:44:19.598Z,0.60
2018-07-02T14:46:48.069Z,0.50
2018-07-02T14:49:16.576Z,0.80
2018-07-02T14:51:45.081Z,0.70
2018-07-02T14:54:13.607Z,0.50
2018-07-02T14:56:42.085Z,1.00
2018-07-02T14:59:10.617Z,0.90
2018-07-02T15:01:39.137Z,0.50
2018-07-02T15:04:07.645Z,0.70
2018-07-02T15:06:36.196Z,0.80
2018-07-02T15:09:08.300Z,0.53
2018-07-02T15:11:36.810Z,0.60
2018-07-02T15:14:05.325Z,0.50
2018-07-02T15:16:33.809Z,0.67
2018-07-02T15:19:02.432Z,0.60
2018-07-02T15:21:31.046Z,0.60
2018-07-02T15:23:59.545Z,0.70
2018-07-02T15:26:28.019Z,0.60
2018-07-02T15:28:56.692Z,0.53
2018-07-02T15:31:25.188Z,0.53
2018-07-02T15:33:53.671Z,0.60
2018-07-02T15:36:22.638Z,0.70
2018-07-02T15:38:51.257Z,0.70
2018-07-02T15:41:19.866Z,0.70
2018-07-02T15:43:48.475Z,0.60
2018-07-02T15:46:17.001Z,0.60
2018-07-02T15:48:45.523Z,0.80
2018-07-02T15:51:14.093Z,0.67
2018-07-02T15:53:42.625Z,0.60
2018-07-02T15:56:11.117Z,0.57
2018-07-02T15:58:39.870Z,0.60
2018-07-02T16:01:08.349Z,0.80
2018-07-02T16:03:37.062Z,0.73
2018-07-02T16:06:05.520Z,0.70
2018-07-02T16:08:34.065Z,0.80
2018-07-02T16:11:02.593Z,0.70
2018-07-02T16:13:31.092Z,0.70
2018-07-02T16:15:59.621Z,0.50
2018-07-02T16:18:28.095Z,0.80
2018-07-02T16:20:56.577Z,0.70
2018-07-02T16:23:25.090Z,0.70
2018-07-02T16:25:53.599Z,0.70
2018-07-02T16:28:22.069Z,1.03
2018-07-02T16:30:51.089Z,1.00
2018-07-02T16:33:19.596Z,0.70
2018-07-02T16:35:48.283Z,0.90
2018-07-02T16:38:16.822Z,0.80
2018-07-02T16:40:45.370Z,0.70
2018-07-02T16:43:13.914Z,0.70
2018-07-02T16:45:42.505Z,0.80
2018-07-02T16:48:11.001Z,0.90
2018-07-02T16:50:39.612Z,0.70
2018-07-02T16:53:08.157Z,0.80
2018-07-02T16:55:36.814Z,0.83
2018-07-02T16:58:05.717Z,0.70
2018-07-02T17:00:34.293Z,0.70
2018-07-02T17:03:02.936Z,0.83
2018-07-02T17:05:31.492Z,0.77
2018-07-02T17:08:00.114Z,0.80
2018-07-02T17:10:28.606Z,1.07
2018-07-02T17:12:57.177Z,0.70
2018-07-02T17:15:25.705Z,1.10
2018-07-02T17:17:54.210Z,0.70
2018-07-02T17:20:22.983Z,0.70
2018-07-02T17:22:51.546Z,0.70
2018-07-02T17:25:20.002Z,1.00
2018-07-02T17:27:48.488Z,1.40
2018-07-02T17:30:17.209Z,0.80
2018-07-02T17:32:46.410Z,2.30
2018-07-02T17:35:15.028Z,2.53
2018-07-02T17:37:43.536Z,1.30
2018-07-02T17:40:12.001Z,0.90
2018-07-02T17:42:40.656Z,1.60
2018-07-02T17:45:09.162Z,2.30
2018-07-02T17:47:37.640Z,0.90
2018-07-02T17:50:07.261Z,1.00
2018-07-02T17:52:35.747Z,1.20
2018-07-02T17:55:04.346Z,0.90
2018-07-02T17:57:32.889Z,1.00
2018-07-02T18:00:01.532Z,0.90
2018-07-02T18:02:30.026Z,0.90
2018-07-02T18:04:58.542Z,1.13
2018-07-02T18:07:27.114Z,1.00
2018-07-02T18:09:56.214Z,0.90
2018-07-02T18:12:24.832Z,1.27
2018-07-02T18:14:53.386Z,1.10
2018-07-02T18:17:22.529Z,1.00
2018-07-02T18:19:51.122Z,1.10
2018-07-02T18:22:20.012Z,1.10
2018-07-02T18:24:48.579Z,0.90
2018-07-02T18:27:17.571Z,1.23
2018-07-02T18:29:46.256Z,1.10
2018-07-02T18:32:14.764Z,1.10
2018-07-02T18:34:43.244Z,1.30
2018-07-02T18:37:11.749Z,1.07
2018-07-02T18:39:40.249Z,1.17
2018-07-02T18:42:09.197Z,1.03
2018-07-02T18:44:37.861Z,1.10
2018-07-02T18:47:09.658Z,1.20
2018-07-02T18:49:38.157Z,1.30
2018-07-02T18:52:06.975Z,1.47
2018-07-02T18:54:35.459Z,1.07
2018-07-02T18:57:04.018Z,1.00
2018-07-02T18:59:32.614Z,0.90
2018-07-02T19:02:01.101Z,1.10
2018-07-02T19:04:30.016Z,1.07
2018-07-02T19:06:58.541Z,0.80
2018-07-02T19:09:27.594Z,1.20
2018-07-02T19:11:56.124Z,0.90
2018-07-02T19:14:24.588Z,1.00
2018-07-02T19:16:53.246Z,0.90
2018-07-02T19:19:21.782Z,0.90
2018-07-02T19:21:50.310Z,1.17
2018-07-02T19:24:18.782Z,1.23
2018-07-02T19:26:47.286Z,0.80
2018-07-02T19:29:16.033Z,1.00
2018-07-02T19:31:44.586Z,1.00
2018-07-02T19:34:13.134Z,1.10
2018-07-02T19:36:41.609Z,1.20
2018-07-02T19:39:12.441Z,1.20
2018-07-02T19:41:41.021Z,1.00
2018-07-02T19:44:10.094Z,0.90
2018-07-02T19:46:38.630Z,1.00
2018-07-02T19:49:07.117Z,1.10
2018-07-02T19:51:35.809Z,1.03
2018-07-02T19:54:04.546Z,0.97
2018-07-02T19:56:33.150Z,0.93
2018-07-02T19:59:01.594Z,1.10
2018-07-02T20:01:30.123Z,1.00
2018-07-02T20:03:58.679Z,1.07
2018-07-02T20:06:27.565Z,0.90
2018-07-02T20:08:56.067Z,1.00
2018-07-02T20:11:24.899Z,0.80
2018-07-02T20:13:53.758Z,0.80
2018-07-02T20:16:22.290Z,0.83
2018-07-02T20:18:50.825Z,0.70
2018-07-02T20:21:19.785Z,1.10
2018-07-02T20:23:48.308Z,0.93
2018-07-02T20:26:16.890Z,0.90
2018-07-02T20:28:45.451Z,0.80
2018-07-02T20:31:14.399Z,0.80
2018-07-02T20:33:42.899Z,0.90
2018-07-02T20:36:11.362Z,1.27
2018-07-02T20:38:39.961Z,0.70
2018-07-02T20:41:08.477Z,0.90
2018-07-02T20:43:37.545Z,0.90
2018-07-02T20:46:06.517Z,0.90
2018-07-02T20:48:35.056Z,0.80
2018-07-02T20:51:04.483Z,0.70
2018-07-02T20:53:33.103Z,0.90
2018-07-02T20:56:01.887Z,0.70
2018-07-02T20:58:30.582Z,0.80
2018-07-02T21:00:59.045Z,0.70
2018-07-02T21:03:27.556Z,0.90
2018-07-02T21:05:56.252Z,0.90
2018-07-02T21:08:24.721Z,0.80
2018-07-02T21:10:53.251Z,0.90
2018-07-02T21:13:22.249Z,1.30
2018-07-02T21:15:51.202Z,0.90
2018-07-02T21:18:19.650Z,0.90
2018-07-02T21:20:48.260Z,0.97
2018-07-02T21:23:16.729Z,0.90
2018-07-02T21:25:45.414Z,0.83
2018-07-02T21:28:14.152Z,1.10
2018-07-02T21:30:42.641Z,0.80
2018-07-02T21:33:11.319Z,0.90
2018-07-02T21:35:39.824Z,0.80
2018-07-02T21:38:08.535Z,1.13
2018-07-02T21:40:37.042Z,0.97
2018-07-02T21:43:06.153Z,1.00
2018-07-02T21:45:35.165Z,0.77
2018-07-02T21:48:04.718Z,0.80
2018-07-02T21:50:33.179Z,0.73
2018-07-02T21:53:01.669Z,0.87
2018-07-02T21:55:30.212Z,0.90
2018-07-02T21:57:59.291Z,0.67
2018-07-02T22:00:27.812Z,0.70
2018-07-02T22:02:56.642Z,0.90
2018-07-02T22:05:25.435Z,0.90
2018-07-02T22:07:53.927Z,0.97
2018-07-02T22:10:22.438Z,1.00
2018-07-02T22:12:50.926Z,1.00
2018-07-02T22:15:19.488Z,0.80
2018-07-02T22:17:48.341Z,0.90
2018-07-02T22:20:16.836Z,1.20
2018-07-02T22:22:45.625Z,0.80
2018-07-02T22:25:14.281Z,0.93
2018-07-02T22:27:42.788Z,1.20
2018-07-02T22:30:11.510Z,1.20
2018-07-02T22:32:39.980Z,1.20
2018-07-02T22:35:08.638Z,1.20
2018-07-02T22:37:37.110Z,0.90
2018-07-02T22:40:05.972Z,1.00
2018-07-02T22:42:34.560Z,0.87
2018-07-02T22:45:03.096Z,0.90
2018-07-02T22:47:31.588Z,1.10
2018-07-02T22:50:00.132Z,1.20
2018-07-02T22:52:28.796Z,1.03
2018-07-02T22:54:57.293Z,1.00
2018-07-02T22:57:25.753Z,1.00
2018-07-02T22:59:54.218Z,1.30
2018-07-02T23:02:22.693Z,1.20
2018-07-02T23:04:51.204Z,1.10
2018-07-02T23:07:19.649Z,1.30
2018-07-02T23:09:48.406Z,1.17
2018-07-02T23:12:16.909Z,1.10
2018-07-02T23:14:45.546Z,1.10
2018-07-02T23:17:15.145Z,0.97
2018-07-02T23:19:43.746Z,1.10
2018-07-02T23:22:12.239Z,1.20
2018-07-02T23:24:40.721Z,1.57
2018-07-02T23:27:09.242Z,1.63
2018-07-02T23:29:37.749Z,1.23
2018-07-02T23:32:06.262Z,1.50
2018-07-02T23:34:34.773Z,1.20
2018-07-02T23:37:03.242Z,1.40
2018-07-02T23:39:31.732Z,1.30
2018-07-02T23:42:01.241Z,1.60
2018-07-02T23:44:29.709Z,1.70
2018-07-02T23:46:58.666Z,1.70
2018-07-02T23:49:27.167Z,1.50
2018-07-02T23:51:55.639Z,1.50
2018-07-02T23:54:24.124Z,1.67
2018-07-02T23:56:52.651Z,1.67
2018-07-02T23:59:21.208Z,1.90
